Time;durP1;ratioP1;P1;durP2;ratioP2;P2;SDS_P1;SDS_P2;PMS_P1;PMS_P2;Temp;Humidity;BMP_temperature;BMP_pressure;BME280_temperature;BME280_humidity;BME280_pressure;Samples;Min_cycle;Max_cycle;Signal;HPM_P1;HPM_P2
2022/08/29 00:00:30;;;;;;;;;;;;;;;;;;5042554;28;1056;-74
2022/08/29 00:02:56;;;;;;;;;;;;;;;;;;5042294;28;831;-73
2022/08/29 00:05:23;;;;;;;;;;;;;;;;;;5042169;28;1263;-74
2022/08/29 00:07:48;;;;;;;;;;;;;;;;;;5042285;28;1258;-74
2022/08/29 00:10:14;;;;;;;;;;;;;;;;;;5042249;28;1889;-74
2022/08/29 00:12:39;;;;;;;;;;;;;;;;;;5042429;28;802;-74
2022/08/29 00:15:05;;;;;;;;;;;;;;;;;;5042006;28;1282;-72
2022/08/29 00:17:31;;;;;;;;;;;;;;;;;;5042377;28;1191;-71
2022/08/29 00:19:56;;;;;;;;;;;;;;;;;;5042036;28;985;-71
2022/08/29 00:22:21;;;;;;;;;;;;;;;;;;5042302;28;944;-71
2022/08/29 00:24:46;;;;;;;;;;;;;;;;;;5041968;28;1283;-71
2022/08/29 00:27:11;;;;;;;;;;;;;;;;;;5041196;28;890;-71
2022/08/29 00:29:37;;;;;;;;;;;;;;;;;;5042080;28;1897;-72
2022/08/29 00:32:02;;;;;;;;;;;;;;;;;;5042113;28;874;-74
2022/08/29 00:34:27;;;;;;;;;;;;;;;;;;5041779;28;1184;-71
2022/08/29 00:36:53;;;;;;;;;;;;;;;;;;5041680;28;921;-71
2022/08/29 00:39:18;;;;;;;;;;;;;;;;;;5041943;28;904;-71
2022/08/29 00:41:44;;;;;;;;;;;;;;;;;;5041772;28;969;-73
2022/08/29 00:44:09;;;;;;;;;;;;;;;;;;5042078;28;858;-73
2022/08/29 00:46:40;;;;;;;;;;;;;;;;;;5039450;28;1914;-73
2022/08/29 00:49:08;;;;;;;;;;;;;;;;;;5041605;28;1965;-74
2022/08/29 00:51:35;;;;;;;;;;;;;;;;;;5041698;28;1032;-74
2022/08/29 00:54:02;;;;;;;;;;;;;;;;;;5041739;28;815;-74
2022/08/29 00:56:28;;;;;;;;;;;;;;;;;;5041412;28;1223;-74
2022/08/29 00:58:56;;;;;;;;;;;;;;;;;;5041596;28;858;-73
2022/08/29 01:01:22;;;;;;;;;;;;;;;;;;5041512;28;831;-73
2022/08/29 01:03:48;;;;;;;;;;;;;;;;;;5041491;28;850;-73
2022/08/29 01:06:14;;;;;;;;;;;;;;;;;;5041322;28;1215;-73
2022/08/29 01:08:39;;;;;;;;;;;;;;;;;;5041623;28;858;-75
2022/08/29 01:13:49;;;;;;;;;;;;;;;;;;5041455;28;616;-73
2022/08/29 01:16:16;;;;;;;;;;;;;;;;;;5041021;28;1174;-74
2022/08/29 01:18:44;;;;;;;;;;;;;;;;;;5023554;28;1184;-74
2022/08/29 01:21:15;;;;;;;;;;;;;;;;;;5041282;28;790;-74
2022/08/29 01:24:15;;;;;;;;;;;;;;;;;;5023588;28;1261;-73
2022/08/29 01:26:43;;;;;;;;;;;;;;;;;;4978876;28;1253;-73
2022/08/29 01:29:08;;;;;;;;;;;;;;;;;;5029235;28;2087;-73
2022/08/29 01:31:38;;;;;;;;;;;;;;;;;;5041208;28;807;-73
2022/08/29 01:34:04;;;;;;;;;;;;;;;;;;5023466;28;863;-74
2022/08/29 01:36:32;;;;;;;;;;;;;;;;;;5040739;28;1161;-74
2022/08/29 01:38:58;;;;;;;;;;;;;;;;;;5023004;28;1267;-73
2022/08/29 01:41:23;;;;;;;;;;;;;;;;;;5041128;28;838;-73
2022/08/29 01:43:50;;;;;;;;;;;;;;;;;;5041003;28;879;-73
2022/08/29 01:46:18;;;;;;;;;;;;;;;;;;5040528;28;1420;-72
2022/08/29 01:48:44;;;;;;;;;;;;;;;;;;5041072;28;798;-73
2022/08/29 01:51:10;;;;;;;;;;;;;;;;;;5040879;28;1898;-72
2022/08/29 01:53:36;;;;;;;;;;;;;;;;;;5040856;28;814;-73
2022/08/29 01:56:27;;;;;;;;;;;;;;;;;;5040814;28;1254;-72
2022/08/29 01:58:54;;;;;;;;;;;;;;;;;;5035955;28;1108;-72
2022/08/29 02:01:21;;;;;;;;;;;;;;;;;;5040742;28;829;-73
2022/08/29 02:03:46;;;;;;;;;;;;;;;;;;5040738;28;1015;-73
2022/08/29 02:06:12;;;;;;;;;;;;;;;;;;5040473;28;1156;-72
2022/08/29 02:08:38;;;;;;;;;;;;;;;;;;5040625;28;870;-73
2022/08/29 02:11:08;;;;;;;;;;;;;;;;;;5040747;28;1905;-72
2022/08/29 02:13:33;;;;;;;;;;;;;;;;;;5040634;28;795;-72
2022/08/29 02:15:59;;;;;;;;;;;;;;;;;;5040437;28;1227;-73
2022/08/29 02:18:24;;;;;;;;;;;;;;;;;;5040563;28;847;-74
2022/08/29 02:20:49;;;;;;;;;;;;;;;;;;5040456;28;806;-75
2022/08/29 02:23:14;;;;;;;;;;;;;;;;;;5040761;28;875;-75
2022/08/29 02:25:43;;;;;;;;;;;;;;;;;;5040166;28;1164;-75
2022/08/29 02:28:10;;;;;;;;;;;;;;;;;;5040559;28;842;-75
2022/08/29 02:30:36;;;;;;;;;;;;;;;;;;5040317;28;1968;-75
2022/08/29 02:33:01;;;;;;;;;;;;;;;;;;5040498;28;910;-73
2022/08/29 02:35:27;;;;;;;;;;;;;;;;;;5039957;28;1215;-72
2022/08/29 02:37:52;;;;;;;;;;;;;;;;;;5040384;28;815;-75
2022/08/29 02:40:17;;;;;;;;;;;;;;;;;;5040152;28;1012;-75
2022/08/29 02:42:42;;;;;;;;;;;;;;;;;;5040467;28;877;-74
2022/08/29 02:45:09;;;;;;;;;;;;;;;;;;5040176;28;1161;-74
2022/08/29 02:47:35;;;;;;;;;;;;;;;;;;5038112;28;1898;-73
2022/08/29 02:50:03;;;;;;;;;;;;;;;;;;5041665;28;1973;-73
2022/08/29 02:52:28;;;;;;;;;;;;;;;;;;5043548;28;881;-73
2022/08/29 02:54:53;;;;;;;;;;;;;;;;;;5043422;28;1330;-73
2022/08/29 02:57:18;;;;;;;;;;;;;;;;;;5025581;28;1271;-73
2022/08/29 02:59:43;;;;;;;;;;;;;;;;;;5043635;28;854;-72
2022/08/29 03:02:09;;;;;;;;;;;;;;;;;;5043299;28;906;-72
2022/08/29 03:04:34;;;;;;;;;;;;;;;;;;5043097;28;1324;-72
2022/08/29 03:06:59;;;;;;;;;;;;;;;;;;5043452;28;1032;-72
2022/08/29 03:09:24;;;;;;;;;;;;;;;;;;5043242;28;1969;-72
2022/08/29 03:11:53;;;;;;;;;;;;;;;;;;5043353;28;906;-73
2022/08/29 03:14:19;;;;;;;;;;;;;;;;;;5043158;28;1160;-73
2022/08/29 03:16:44;;;;;;;;;;;;;;;;;;5043006;28;1044;-73
2022/08/29 03:19:09;;;;;;;;;;;;;;;;;;5042984;28;862;-73
2022/08/29 03:21:34;;;;;;;;;;;;;;;;;;5043201;28;799;-73
2022/08/29 03:23:59;;;;;;;;;;;;;;;;;;5041684;28;1016;-73
2022/08/29 03:26:25;;;;;;;;;;;;;;;;;;5041019;28;1247;-73
2022/08/29 03:28:50;;;;;;;;;;;;;;;;;;5043115;28;899;-73
2022/08/29 03:31:15;;;;;;;;;;;;;;;;;;5042911;28;1973;-73
2022/08/29 03:33:40;;;;;;;;;;;;;;;;;;5042966;28;1105;-73
2022/08/29 03:36:07;;;;;;;;;;;;;;;;;;5024928;28;1275;-73
2022/08/29 03:38:34;;;;;;;;;;;;;;;;;;5042922;28;1016;-72
2022/08/29 03:40:59;;;;;;;;;;;;;;;;;;5042700;28;927;-72
2022/08/29 03:43:25;;;;;;;;;;;;;;;;;;5042863;28;1041;-72
2022/08/29 03:45:51;;;;;;;;;;;;;;;;;;5042547;28;1471;-72
2022/08/29 03:48:16;;;;;;;;;;;;;;;;;;5042772;28;875;-73
2022/08/29 03:50:42;;;;;;;;;;;;;;;;;;5024904;28;1914;-72
2022/08/29 03:53:07;;;;;;;;;;;;;;;;;;5042485;28;1312;-73
2022/08/29 03:55:32;;;;;;;;;;;;;;;;;;5042396;28;1224;-72
2022/08/29 03:57:57;;;;;;;;;;;;;;;;;;5042720;28;830;-72
2022/08/29 04:00:23;;;;;;;;;;;;;;;;;;5042655;28;973;-72
2022/08/29 04:02:49;;;;;;;;;;;;;;;;;;5042426;28;878;-72
2022/08/29 04:05:15;;;;;;;;;;;;;;;;;;5042381;28;1196;-72
2022/08/29 04:07:53;;;;;;;;;;;;;;;;;;5041173;28;2007;-72
2022/08/29 04:10:37;;;;;;;;;;;;;;;;;;5048447;28;1969;-72
2022/08/29 04:13:03;;;;;;;;;;;;;;;;;;5046784;28;1802;-72
2022/08/29 04:15:31;;;;;;;;;;;;;;;;;;5054626;28;1271;-72
2022/08/29 04:17:58;;;;;;;;;;;;;;;;;;5045544;28;1486;-73
2022/08/29 04:20:24;;;;;;;;;;;;;;;;;;5047959;28;1302;-73
2022/08/29 04:22:50;;;;;;;;;;;;;;;;;;5047771;28;1215;-72
2022/08/29 04:25:15;;;;;;;;;;;;;;;;;;5047166;28;1762;-72
2022/08/29 04:27:41;;;;;;;;;;;;;;;;;;5044933;28;1268;-72
2022/08/29 04:30:08;;;;;;;;;;;;;;;;;;5041210;28;1977;-75
2022/08/29 04:32:33;;;;;;;;;;;;;;;;;;5044197;28;1346;-73
2022/08/29 04:34:59;;;;;;;;;;;;;;;;;;5045475;28;1421;-74
2022/08/29 04:37:24;;;;;;;;;;;;;;;;;;5028919;28;1433;-75
2022/08/29 04:39:49;;;;;;;;;;;;;;;;;;5043315;28;1243;-74
2022/08/29 04:42:16;;;;;;;;;;;;;;;;;;5027761;28;1466;-73
2022/08/29 04:44:42;;;;;;;;;;;;;;;;;;5048116;28;1257;-73
2022/08/29 04:47:07;;;;;;;;;;;;;;;;;;5048404;28;1357;-74
2022/08/29 04:49:32;;;;;;;;;;;;;;;;;;5040372;28;1976;-73
2022/08/29 04:51:57;;;;;;;;;;;;;;;;;;5038665;28;1115;-73
2022/08/29 04:54:23;;;;;;;;;;;;;;;;;;5042708;28;1262;-74
2022/08/29 04:56:48;;;;;;;;;;;;;;;;;;5039841;28;1259;-73
2022/08/29 04:59:14;;;;;;;;;;;;;;;;;;5042417;28;1266;-73
2022/08/29 05:01:40;;;;;;;;;;;;;;;;;;5041445;28;1389;-73
2022/08/29 05:04:05;;;;;;;;;;;;;;;;;;5041257;28;1232;-71
2022/08/29 05:06:30;;;;;;;;;;;;;;;;;;5041028;28;1393;-73
2022/08/29 05:08:55;;;;;;;;;;;;;;;;;;5015945;28;1279;-72
2022/08/29 05:11:21;;;;;;;;;;;;;;;;;;5034530;28;1890;-72
2022/08/29 05:13:47;;;;;;;;;;;;;;;;;;5033542;28;1141;-70
2022/08/29 05:16:13;;;;;;;;;;;;;;;;;;5009447;28;1393;-74
2022/08/29 05:18:40;;;;;;;;;;;;;;;;;;5009842;28;1286;-74
2022/08/29 05:21:05;;;;;;;;;;;;;;;;;;5026943;28;1220;-74
2022/08/29 05:23:30;;;;;;;;;;;;;;;;;;5031103;28;2260;-71
2022/08/29 05:25:57;;;;;;;;;;;;;;;;;;5016859;28;1303;-72
2022/08/29 05:28:22;;;;;;;;;;;;;;;;;;5033312;28;1295;-71
2022/08/29 05:30:48;;;;;;;;;;;;;;;;;;5034101;28;1902;-71
2022/08/29 05:33:13;;;;;;;;;;;;;;;;;;5033981;28;1232;-69
2022/08/29 05:35:39;;;;;;;;;;;;;;;;;;5033254;28;1283;-74
2022/08/29 05:38:04;;;;;;;;;;;;;;;;;;5033401;28;1247;-72
2022/08/29 05:40:29;;;;;;;;;;;;;;;;;;5033761;28;1211;-71
2022/08/29 05:42:54;;;;;;;;;;;;;;;;;;5030443;28;1228;-73
2022/08/29 05:45:20;;;;;;;;;;;;;;;;;;5026483;28;1330;-71
2022/08/29 05:47:45;;;;;;;;;;;;;;;;;;5032343;28;1224;-71
2022/08/29 05:50:12;;;;;;;;;;;;;;;;;;5033855;28;2094;-72
2022/08/29 05:52:39;;;;;;;;;;;;;;;;;;5033871;28;1264;-71
2022/08/29 05:55:04;;;;;;;;;;;;;;;;;;5033018;28;1256;-71
2022/08/29 05:57:30;;;;;;;;;;;;;;;;;;5033275;28;1235;-71
2022/08/29 05:59:55;;;;;;;;;;;;;;;;;;5030328;28;1216;-70
2022/08/29 06:02:21;;;;;;;;;;;;;;;;;;5034263;28;1323;-70
2022/08/29 06:04:46;;;;;;;;;;;;;;;;;;5027742;28;1255;-70
2022/08/29 06:07:12;;;;;;;;;;;;;;;;;;5026810;28;1339;-70
2022/08/29 06:09:38;;;;;;;;;;;;;;;;;;5026843;28;1964;-71
2022/08/29 06:12:04;;;;;;;;;;;;;;;;;;5025792;28;1256;-71
2022/08/29 06:14:29;;;;;;;;;;;;;;;;;;5026057;28;1338;-71
2022/08/29 06:16:55;;;;;;;;;;;;;;;;;;5032732;28;1322;-71
2022/08/29 06:19:20;;;;;;;;;;;;;;;;;;5015104;28;1429;-71
2022/08/29 06:21:46;;;;;;;;;;;;;;;;;;5033424;28;1287;-70
2022/08/29 06:24:11;;;;;;;;;;;;;;;;;;5033741;28;1232;-71
2022/08/29 06:26:37;;;;;;;;;;;;;;;;;;5036087;28;1275;-71
2022/08/29 06:29:05;;;;;;;;;;;;;;;;;;5036228;28;1910;-70
2022/08/29 06:31:30;;;;;;;;;;;;;;;;;;5036245;28;1279;-71
2022/08/29 06:33:57;;;;;;;;;;;;;;;;;;5032879;28;1413;-71
2022/08/29 06:36:24;;;;;;;;;;;;;;;;;;5029418;28;1339;-70
2022/08/29 06:38:49;;;;;;;;;;;;;;;;;;5029619;28;1327;-70
2022/08/29 06:41:15;;;;;;;;;;;;;;;;;;5029818;28;1243;-70
2022/08/29 06:43:41;;;;;;;;;;;;;;;;;;5028920;28;1220;-71
2022/08/29 06:46:07;;;;;;;;;;;;;;;;;;5029158;28;1342;-70
2022/08/29 06:48:32;;;;;;;;;;;;;;;;;;5034050;28;1378;-70
2022/08/29 06:51:01;;;;;;;;;;;;;;;;;;5032155;28;1902;-70
2022/08/29 06:53:27;;;;;;;;;;;;;;;;;;5029976;28;1287;-71
2022/08/29 06:55:52;;;;;;;;;;;;;;;;;;5036404;28;1357;-71
2022/08/29 06:58:17;;;;;;;;;;;;;;;;;;5036210;28;1223;-70
2022/08/29 07:00:43;;;;;;;;;;;;;;;;;;5035835;28;1231;-71
2022/08/29 07:03:09;;;;;;;;;;;;;;;;;;5035769;28;1278;-71
2022/08/29 07:05:34;;;;;;;;;;;;;;;;;;5034723;28;1294;-69
2022/08/29 07:08:00;;;;;;;;;;;;;;;;;;5037418;28;1303;-71
2022/08/29 07:10:25;;;;;;;;;;;;;;;;;;5035469;28;1966;-71
2022/08/29 07:12:50;;;;;;;;;;;;;;;;;;5035602;28;1227;-71
2022/08/29 07:15:16;;;;;;;;;;;;;;;;;;5034592;28;1520;-71
2022/08/29 07:17:41;;;;;;;;;;;;;;;;;;5036250;28;1164;-71
2022/08/29 07:20:07;;;;;;;;;;;;;;;;;;5035424;28;1239;-71
2022/08/29 07:22:33;;;;;;;;;;;;;;;;;;5035488;28;1281;-71
2022/08/29 07:24:58;;;;;;;;;;;;;;;;;;5031496;28;1248;-71
2022/08/29 07:27:23;;;;;;;;;;;;;;;;;;5028954;28;1199;-71
2022/08/29 07:29:48;;;;;;;;;;;;;;;;;;5029004;28;1898;-71
2022/08/29 07:32:13;;;;;;;;;;;;;;;;;;5029132;28;1294;-71
2022/08/29 07:34:39;;;;;;;;;;;;;;;;;;5027784;28;1267;-71
2022/08/29 07:37:04;;;;;;;;;;;;;;;;;;5028469;28;1223;-72
2022/08/29 07:39:30;;;;;;;;;;;;;;;;;;5028832;28;1433;-71
2022/08/29 07:41:55;;;;;;;;;;;;;;;;;;5034027;28;1220;-71
2022/08/29 07:44:21;;;;;;;;;;;;;;;;;;5018060;28;1854;-72
2022/08/29 07:46:46;;;;;;;;;;;;;;;;;;5034798;28;1263;-71
2022/08/29 07:49:11;;;;;;;;;;;;;;;;;;5028933;28;1898;-72
2022/08/29 07:51:38;;;;;;;;;;;;;;;;;;5028793;28;1212;-71
2022/08/29 07:54:04;;;;;;;;;;;;;;;;;;5031334;28;1335;-71
2022/08/29 07:56:30;;;;;;;;;;;;;;;;;;5035439;28;1291;-72
2022/08/29 07:58:56;;;;;;;;;;;;;;;;;;5035466;28;1314;-72
2022/08/29 08:01:21;;;;;;;;;;;;;;;;;;5034707;28;1227;-71
2022/08/29 08:03:46;;;;;;;;;;;;;;;;;;5035279;28;1282;-69
2022/08/29 08:06:11;;;;;;;;;;;;;;;;;;5035081;28;1267;-71
2022/08/29 08:08:37;;;;;;;;;;;;;;;;;;5036103;28;1160;-70
2022/08/29 08:11:04;;;;;;;;;;;;;;;;;;5034581;28;1910;-70
2022/08/29 08:13:29;;;;;;;;;;;;;;;;;;5034576;28;1227;-71
2022/08/29 08:15:54;;;;;;;;;;;;;;;;;;5030710;28;1303;-70
2022/08/29 08:18:20;;;;;;;;;;;;;;;;;;5027981;28;1310;-70
2022/08/29 08:20:47;;;;;;;;;;;;;;;;;;5028476;28;1252;-70
2022/08/29 08:23:13;;;;;;;;;;;;;;;;;;5028081;28;1283;-71
2022/08/29 08:25:38;;;;;;;;;;;;;;;;;;5027072;28;1263;-70
2022/08/29 08:28:03;;;;;;;;;;;;;;;;;;5027849;28;1223;-71
2022/08/29 08:30:28;;;;;;;;;;;;;;;;;;5028094;28;1894;-71
2022/08/29 08:32:54;;;;;;;;;;;;;;;;;;5033036;28;1271;-70
2022/08/29 08:35:19;;;;;;;;;;;;;;;;;;5034800;28;1380;-70
2022/08/29 08:37:45;;;;;;;;;;;;;;;;;;5034773;28;1228;-70
2022/08/29 08:40:21;;;;;;;;;;;;;;;;;;5034196;28;1275;-71
2022/08/29 08:42:49;;;;;;;;;;;;;;;;;;5029363;28;1193;-71
2022/08/29 08:45:16;;;;;;;;;;;;;;;;;;5027461;28;1358;-71
2022/08/29 08:47:46;;;;;;;;;;;;;;;;;;5029751;28;1291;-71
2022/08/29 08:50:22;;;;;;;;;;;;;;;;;;5030737;28;1898;-71
2022/08/29 08:52:55;;;;;;;;;;;;;;;;;;5027995;28;1244;-71
2022/08/29 08:55:25;;;;;;;;;;;;;;;;;;5032462;28;1271;-71
2022/08/29 08:58:12;;;;;;;;;;;;;;;;;;5034099;28;1399;-71
2022/08/29 09:00:41;;;;;;;;;;;;;;;;;;5028844;28;1204;-70
2022/08/29 09:03:10;;;;;;;;;;;;;;;;;;5027727;28;1192;-70
2022/08/29 09:05:35;;;;;;;;;;;;;;;;;;5029402;28;1386;-71
2022/08/29 09:08:00;;;;;;;;;;;;;;;;;;5033880;28;1287;-70
2022/08/29 09:10:29;;;;;;;;;;;;;;;;;;5034368;28;1890;-71
2022/08/29 09:12:54;;;;;;;;;;;;;;;;;;5034892;28;1236;-71
2022/08/29 09:15:22;;;;;;;;;;;;;;;;;;5033276;28;1248;-71
2022/08/29 09:17:49;;;;;;;;;;;;;;;;;;5033525;28;1227;-71
2022/08/29 09:20:27;;;;;;;;;;;;;;;;;;5033628;28;1219;-71
2022/08/29 09:22:58;;;;;;;;;;;;;;;;;;5034929;28;1294;-71
2022/08/29 09:25:24;;;;;;;;;;;;;;;;;;5033106;28;1267;-71
2022/08/29 09:27:50;;;;;;;;;;;;;;;;;;5033920;28;1180;-70
2022/08/29 09:30:25;;;;;;;;;;;;;;;;;;5034511;28;1967;-70
2022/08/29 09:33:01;;;;;;;;;;;;;;;;;;5028478;28;1259;-70
2022/08/29 09:35:32;;;;;;;;;;;;;;;;;;5031851;28;1303;-70
2022/08/29 09:37:59;;;;;;;;;;;;;;;;;;5041692;28;1612;-71
2022/08/29 09:40:38;;;;;;;;;;;;;;;;;;5031709;28;1188;-70
2022/08/29 09:43:04;;;;;;;;;;;;;;;;;;5026780;28;1108;-71
2022/08/29 09:45:29;;;;;;;;;;;;;;;;;;5025954;28;1362;-71
2022/08/29 09:48:10;;;;;;;;;;;;;;;;;;5031386;28;1165;-71
2022/08/29 09:50:35;;;;;;;;;;;;;;;;;;5028502;28;1902;-71
2022/08/29 09:53:02;;;;;;;;;;;;;;;;;;5026413;28;1312;-70
2022/08/29 09:55:30;;;;;;;;;;;;;;;;;;5033137;28;1345;-70
2022/08/29 09:57:58;;;;;;;;;;;;;;;;;;5034229;28;1247;-71
2022/08/29 10:00:25;;;;;;;;;;;;;;;;;;5036653;28;1223;-71
2022/08/29 10:02:57;;;;;;;;;;;;;;;;;;5036643;28;1274;-71
2022/08/29 10:05:26;;;;;;;;;;;;;;;;;;5036163;28;1370;-71
2022/08/29 10:07:51;;;;;;;;;;;;;;;;;;5035210;28;1302;-71
2022/08/29 10:10:21;;;;;;;;;;;;;;;;;;5037491;28;1910;-71
2022/08/29 10:12:56;;;;;;;;;;;;;;;;;;5037408;28;1302;-71
2022/08/29 10:15:37;;;;;;;;;;;;;;;;;;5036761;28;1271;-71
2022/08/29 10:18:22;;;;;;;;;;;;;;;;;;5035335;28;1141;-71
2022/08/29 10:20:57;;;;;;;;;;;;;;;;;;5037517;28;1065;-71
2022/08/29 10:23:28;;;;;;;;;;;;;;;;;;5036495;28;1267;-70
2022/08/29 10:25:53;;;;;;;;;;;;;;;;;;5036235;28;1330;-70
2022/08/29 10:28:28;;;;;;;;;;;;;;;;;;5036042;28;1195;-71
2022/08/29 10:30:53;;;;;;;;;;;;;;;;;;5035062;28;1951;-71
2022/08/29 10:33:47;;;;;;;;;;;;;;;;;;5029632;28;1235;-70
2022/08/29 10:36:28;;;;;;;;;;;;;;;;;;5030886;28;1197;-71
2022/08/29 10:39:05;;;;;;;;;;;;;;;;;;5031066;28;1208;-71
2022/08/29 10:41:36;;;;;;;;;;;;;;;;;;5035124;28;1213;-71
2022/08/29 10:44:22;;;;;;;;;;;;;;;;;;5034875;28;1221;-70
2022/08/29 10:47:08;;;;;;;;;;;;;;;;;;5024730;28;1153;-70
2022/08/29 10:49:48;;;;;;;;;;;;;;;;;;5037212;28;1905;-70
2022/08/29 10:52:19;;;;;;;;;;;;;;;;;;5034791;28;1247;-71
2022/08/29 10:54:48;;;;;;;;;;;;;;;;;;5028947;28;1216;-70
2022/08/29 10:57:22;;;;;;;;;;;;;;;;;;5028912;28;1220;-70
2022/08/29 11:00:13;;;;;;;;;;;;;;;;;;5029253;28;1208;-70
2022/08/29 11:02:44;;;;;;;;;;;;;;;;;;5027289;28;1134;-70
2022/08/29 11:05:14;;;;;;;;;;;;;;;;;;5032244;28;1328;-70
2022/08/29 11:07:42;;;;;;;;;;;;;;;;;;5035717;28;1286;-70
2022/08/29 11:10:11;;;;;;;;;;;;;;;;;;5035855;28;1898;-70
2022/08/29 11:12:45;;;;;;;;;;;;;;;;;;5036242;28;1298;-70
2022/08/29 11:15:10;;;;;;;;;;;;;;;;;;5030334;28;1465;-70
2022/08/29 11:17:39;;;;;;;;;;;;;;;;;;5027992;28;1410;-70
2022/08/29 11:20:30;;;;;;;;;;;;;;;;;;5035623;28;1232;-70
2022/08/29 11:23:04;;;;;;;;;;;;;;;;;;5028899;28;1203;-70
2022/08/29 11:25:31;;;;;;;;;;;;;;;;;;5033459;28;1263;-70
2022/08/29 11:28:15;;;;;;;;;;;;;;;;;;5036425;28;1302;-70
2022/08/29 11:30:44;;;;;;;;;;;;;;;;;;5035203;28;1897;-70
2022/08/29 11:33:09;;;;;;;;;;;;;;;;;;5018201;28;1824;-70
2022/08/29 11:35:51;;;;;;;;;;;;;;;;;;5035205;28;1275;-70
2022/08/29 11:38:28;;;;;;;;;;;;;;;;;;5036134;28;1200;-70
2022/08/29 11:41:10;;;;;;;;;;;;;;;;;;5033715;28;1267;-70
2022/08/29 11:43:39;;;;;;;;;;;;;;;;;;5035318;28;1267;-70
2022/08/29 11:46:05;;;;;;;;;;;;;;;;;;5034668;28;1282;-70
2022/08/29 11:48:38;;;;;;;;;;;;;;;;;;5031101;28;1216;-70
2022/08/29 11:51:22;;;;;;;;;;;;;;;;;;5028822;28;1961;-70
2022/08/29 11:53:47;;;;;;;;;;;;;;;;;;5033269;28;1160;-70
2022/08/29 11:56:12;;;;;;;;;;;;;;;;;;5032386;28;1493;-70
2022/08/29 11:58:39;;;;;;;;;;;;;;;;;;5028663;28;1235;-70
2022/08/29 12:01:05;;;;;;;;;;;;;;;;;;5028705;28;1298;-70
2022/08/29 12:03:33;;;;;;;;;;;;;;;;;;5028618;28;1220;-70
2022/08/29 12:06:01;;;;;;;;;;;;;;;;;;5033454;28;1351;-70
2022/08/29 12:08:31;;;;;;;;;;;;;;;;;;5035442;28;1188;-70
2022/08/29 12:10:57;;;;;;;;;;;;;;;;;;5029663;28;1918;-70
2022/08/29 12:13:41;;;;;;;;;;;;;;;;;;5033169;28;1161;-70
2022/08/29 12:16:08;;;;;;;;;;;;;;;;;;5035122;28;1275;-70
2022/08/29 12:18:34;;;;;;;;;;;;;;;;;;5033743;28;1254;-70
2022/08/29 12:21:01;;;;;;;;;;;;;;;;;;5034322;28;1251;-71
2022/08/29 12:23:29;;;;;;;;;;;;;;;;;;5033286;28;1275;-70
2022/08/29 12:25:55;;;;;;;;;;;;;;;;;;5033557;28;1287;-70
2022/08/29 12:28:20;;;;;;;;;;;;;;;;;;5035239;28;1232;-70
2022/08/29 12:30:46;;;;;;;;;;;;;;;;;;5030431;28;1898;-70
2022/08/29 12:33:17;;;;;;;;;;;;;;;;;;5028063;28;1215;-70
2022/08/29 12:36:02;;;;;;;;;;;;;;;;;;5034608;28;1337;-70
2022/08/29 12:38:48;;;;;;;;;;;;;;;;;;5024678;28;1228;-71
2022/08/29 12:41:32;;;;;;;;;;;;;;;;;;5033539;28;1228;-70
2022/08/29 12:44:00;;;;;;;;;;;;;;;;;;5029230;28;1205;-70
2022/08/29 12:46:31;;;;;;;;;;;;;;;;;;5029149;28;1278;-71
2022/08/29 12:49:16;;;;;;;;;;;;;;;;;;5028066;28;1251;-70
2022/08/29 12:51:42;;;;;;;;;;;;;;;;;;5026349;28;1285;-70
2022/08/29 12:54:08;;;;;;;;;;;;;;;;;;5030046;28;1306;-70
2022/08/29 12:56:34;;;;;;;;;;;;;;;;;;5033314;28;1433;-70
2022/08/29 12:59:01;;;;;;;;;;;;;;;;;;5034069;28;1224;-71
2022/08/29 13:01:30;;;;;;;;;;;;;;;;;;5032915;28;1302;-70
2022/08/29 13:03:57;;;;;;;;;;;;;;;;;;5033493;28;1216;-70
2022/08/29 13:06:22;;;;;;;;;;;;;;;;;;5031814;28;1291;-70
2022/08/29 13:08:47;;;;;;;;;;;;;;;;;;5034373;28;1161;-70
2022/08/29 13:11:17;;;;;;;;;;;;;;;;;;5033721;28;1910;-70
2022/08/29 13:13:42;;;;;;;;;;;;;;;;;;5033653;28;1275;-70
2022/08/29 13:16:20;;;;;;;;;;;;;;;;;;5033245;28;1267;-70
2022/08/29 13:18:45;;;;;;;;;;;;;;;;;;5033492;28;1196;-70
2022/08/29 13:21:17;;;;;;;;;;;;;;;;;;5035098;28;1273;-70
2022/08/29 13:23:46;;;;;;;;;;;;;;;;;;5034041;28;1196;-70
2022/08/29 13:26:12;;;;;;;;;;;;;;;;;;5031822;28;1350;-70
2022/08/29 13:28:46;;;;;;;;;;;;;;;;;;5034049;28;1279;-70
2022/08/29 13:31:13;;;;;;;;;;;;;;;;;;5028455;28;1898;-70
2022/08/29 13:33:59;;;;;;;;;;;;;;;;;;5027829;28;1283;-70
2022/08/29 13:36:43;;;;;;;;;;;;;;;;;;5031640;28;1239;-70
2022/08/29 13:39:20;;;;;;;;;;;;;;;;;;5028055;28;1264;-70
2022/08/29 13:41:50;;;;;;;;;;;;;;;;;;5026179;28;1316;-70
2022/08/29 13:44:21;;;;;;;;;;;;;;;;;;5026334;28;1215;-70
2022/08/29 13:46:47;;;;;;;;;;;;;;;;;;5028360;28;1185;-70
2022/08/29 13:49:19;;;;;;;;;;;;;;;;;;5026975;28;1248;-70
2022/08/29 13:51:45;;;;;;;;;;;;;;;;;;5027298;28;1334;-70
2022/08/29 13:54:10;;;;;;;;;;;;;;;;;;5030617;28;1314;-70
2022/08/29 13:56:35;;;;;;;;;;;;;;;;;;5027429;28;1279;-70
2022/08/29 13:59:01;;;;;;;;;;;;;;;;;;5026390;28;1299;-70
2022/08/29 14:01:26;;;;;;;;;;;;;;;;;;5026890;28;1397;-69
2022/08/29 14:03:51;;;;;;;;;;;;;;;;;;5027021;28;1205;-70
2022/08/29 14:06:18;;;;;;;;;;;;;;;;;;5025211;28;1259;-70
2022/08/29 14:08:43;;;;;;;;;;;;;;;;;;5026308;28;1216;-70
2022/08/29 14:11:08;;;;;;;;;;;;;;;;;;5027815;28;1960;-70
2022/08/29 14:13:33;;;;;;;;;;;;;;;;;;5033167;28;1227;-70
2022/08/29 14:15:59;;;;;;;;;;;;;;;;;;5033163;28;1251;-70
2022/08/29 14:18:24;;;;;;;;;;;;;;;;;;5033528;28;1224;-70
2022/08/29 14:20:49;;;;;;;;;;;;;;;;;;5032760;28;1231;-70
2022/08/29 14:23:14;;;;;;;;;;;;;;;;;;5033014;28;1219;-70
2022/08/29 14:25:39;;;;;;;;;;;;;;;;;;5033036;28;1338;-70
2022/08/29 14:28:05;;;;;;;;;;;;;;;;;;5015200;28;1421;-70
2022/08/29 14:30:30;;;;;;;;;;;;;;;;;;5026945;28;1906;-70
2022/08/29 14:32:55;;;;;;;;;;;;;;;;;;5025878;28;1145;-70
2022/08/29 14:35:21;;;;;;;;;;;;;;;;;;5025340;28;1295;-68
2022/08/29 14:37:46;;;;;;;;;;;;;;;;;;5033621;28;1205;-70
2022/08/29 14:40:11;;;;;;;;;;;;;;;;;;5032440;28;1306;-69
2022/08/29 14:42:37;;;;;;;;;;;;;;;;;;5015503;28;1412;-70
2022/08/29 14:45:02;;;;;;;;;;;;;;;;;;5032420;28;1299;-70
2022/08/29 14:47:28;;;;;;;;;;;;;;;;;;5031640;28;1322;-70
2022/08/29 14:49:53;;;;;;;;;;;;;;;;;;5035760;28;1902;-69
2022/08/29 14:52:18;;;;;;;;;;;;;;;;;;5036338;28;1314;-70
2022/08/29 14:54:44;;;;;;;;;;;;;;;;;;5029961;28;1286;-70
2022/08/29 14:57:09;;;;;;;;;;;;;;;;;;5029578;28;1361;-70
2022/08/29 14:59:34;;;;;;;;;;;;;;;;;;5029740;28;1284;-70
2022/08/29 15:02:00;;;;;;;;;;;;;;;;;;5031081;28;1163;-70
2022/08/29 15:04:25;;;;;;;;;;;;;;;;;;5036644;28;1333;-70
2022/08/29 15:06:50;;;;;;;;;;;;;;;;;;5035490;28;1117;-70
2022/08/29 15:09:16;;;;;;;;;;;;;;;;;;5035782;28;1271;-70
2022/08/29 15:11:41;;;;;;;;;;;;;;;;;;5018774;28;1941;-70
2022/08/29 15:14:06;;;;;;;;;;;;;;;;;;5035894;28;1224;-70
2022/08/29 15:16:32;;;;;;;;;;;;;;;;;;5034847;28;1303;-70
2022/08/29 15:18:57;;;;;;;;;;;;;;;;;;5035636;28;1282;-70
2022/08/29 15:21:22;;;;;;;;;;;;;;;;;;5030498;28;1287;-70
2022/08/29 15:23:47;;;;;;;;;;;;;;;;;;5029133;28;1186;-70
2022/08/29 15:26:13;;;;;;;;;;;;;;;;;;5028459;28;1264;-71
2022/08/29 15:28:38;;;;;;;;;;;;;;;;;;5028932;28;1275;-70
2022/08/29 15:31:04;;;;;;;;;;;;;;;;;;5028179;28;1902;-70
2022/08/29 15:33:29;;;;;;;;;;;;;;;;;;5029035;28;1228;-70
2022/08/29 15:35:54;;;;;;;;;;;;;;;;;;5028317;28;1354;-70
2022/08/29 15:38:19;;;;;;;;;;;;;;;;;;5035273;28;1064;-70
2022/08/29 15:40:45;;;;;;;;;;;;;;;;;;5035728;28;1351;-70
2022/08/29 15:43:10;;;;;;;;;;;;;;;;;;5035346;28;1239;-70
2022/08/29 15:45:35;;;;;;;;;;;;;;;;;;5016515;28;1391;-70
2022/08/29 15:48:00;;;;;;;;;;;;;;;;;;5031984;28;1215;-70
2022/08/29 15:50:26;;;;;;;;;;;;;;;;;;5027972;28;1906;-70
2022/08/29 15:52:51;;;;;;;;;;;;;;;;;;5028734;28;1326;-70
2022/08/29 15:55:17;;;;;;;;;;;;;;;;;;5033903;28;1377;-70
2022/08/29 15:57:42;;;;;;;;;;;;;;;;;;5035571;28;1271;-70
2022/08/29 16:00:08;;;;;;;;;;;;;;;;;;5035570;28;1236;-67
2022/08/29 16:02:33;;;;;;;;;;;;;;;;;;5017044;28;1305;-70
2022/08/29 16:05:00;;;;;;;;;;;;;;;;;;5033493;28;1302;-70
2022/08/29 16:07:26;;;;;;;;;;;;;;;;;;5028153;28;1280;-70
2022/08/29 16:09:52;;;;;;;;;;;;;;;;;;5027819;28;1989;-70
2022/08/29 16:12:17;;;;;;;;;;;;;;;;;;5035859;28;1244;-70
2022/08/29 16:14:42;;;;;;;;;;;;;;;;;;5033871;28;1251;-70
2022/08/29 16:17:07;;;;;;;;;;;;;;;;;;5034873;28;1301;-70
2022/08/29 16:19:33;;;;;;;;;;;;;;;;;;5017693;28;1273;-70
2022/08/29 16:21:58;;;;;;;;;;;;;;;;;;5035051;28;1247;-70
2022/08/29 16:24:25;;;;;;;;;;;;;;;;;;5033849;28;1342;-70
2022/08/29 16:26:50;;;;;;;;;;;;;;;;;;5034217;28;1231;-70
2022/08/29 16:29:16;;;;;;;;;;;;;;;;;;5030025;28;1133;-70
2022/08/29 16:31:41;;;;;;;;;;;;;;;;;;5027324;28;1889;-70
2022/08/29 16:34:06;;;;;;;;;;;;;;;;;;5028007;28;1338;-70
2022/08/29 16:36:31;;;;;;;;;;;;;;;;;;5027356;28;1263;-70
2022/08/29 16:38:57;;;;;;;;;;;;;;;;;;5027987;28;1228;-70
2022/08/29 16:41:23;;;;;;;;;;;;;;;;;;5027324;28;1311;-69
2022/08/29 16:43:50;;;;;;;;;;;;;;;;;;5027448;28;1243;-70
2022/08/29 16:46:17;;;;;;;;;;;;;;;;;;5034636;28;1299;-70
2022/08/29 16:48:42;;;;;;;;;;;;;;;;;;5028498;28;1279;-70
2022/08/29 16:51:08;;;;;;;;;;;;;;;;;;5027669;28;1910;-70
2022/08/29 16:53:34;;;;;;;;;;;;;;;;;;5028260;28;1279;-70
2022/08/29 16:56:06;;;;;;;;;;;;;;;;;;5033613;28;1360;-70
2022/08/29 17:01:16;;;;;;;;;;;;;;;;;;5034919;28;1060;-70
2022/08/29 17:03:41;;;;;;;;;;;;;;;;;;5026907;28;1219;-70
2022/08/29 17:06:06;;;;;;;;;;;;;;;;;;5026803;28;1413;-70
2022/08/29 17:18:12;;;;;;;;;;;;;;;;;;5028159;28;1236;-70
2022/08/29 17:20:40;;;;;;;;;;;;;;;;;;5028764;28;1183;-70
2022/08/29 17:23:05;;;;;;;;;;;;;;;;;;5026394;28;1187;-70